createdAt,value
2023-04-21T00:00:52.878Z,99892.52
2023-04-21T00:03:26.296Z,99893.66
2023-04-21T00:05:59.811Z,99893.63
2023-04-21T00:08:31.881Z,99890.91
2023-04-21T00:11:04.415Z,99891.08
2023-04-21T00:13:37.962Z,99890.91
2023-04-21T00:16:10.733Z,99891.79
2023-04-21T00:18:43.299Z,99897.38
2023-04-21T00:21:16.482Z,99890.14
2023-04-21T00:23:50.189Z,99887.09
2023-04-21T00:26:22.222Z,99887.94
2023-04-21T00:28:54.847Z,99890.41
2023-04-21T00:31:26.836Z,99890.33
2023-04-21T00:33:58.885Z,99890.11
2023-04-21T00:36:30.963Z,99888.08
2023-04-21T00:39:04.043Z,99889.11
2023-04-21T00:41:38.719Z,99889.45
2023-04-21T00:44:11.479Z,99888.95
2023-04-21T00:46:43.974Z,99889.98
2023-04-21T00:49:16.349Z,99889.44
2023-04-21T00:51:48.469Z,99888.91
2023-04-21T00:54:21.582Z,99892.48
2023-04-21T00:56:53.639Z,99884.54
2023-04-21T00:59:25.971Z,99885.48
2023-04-21T01:01:57.964Z,99884.27
2023-04-21T01:04:35.595Z,99881.99
2023-04-21T01:07:10.248Z,99880.42
2023-04-21T01:09:42.369Z,99881.70
2023-04-21T01:12:14.846Z,99882.09
2023-04-21T01:14:46.821Z,99882.84
2023-04-21T01:17:19.065Z,99886.31
2023-04-21T01:19:54.739Z,99887.63
2023-04-21T01:22:26.844Z,99889.88
2023-04-21T01:24:58.776Z,99886.48
2023-04-21T01:27:30.691Z,99886.81
2023-04-21T01:30:02.663Z,99885.91
2023-04-21T01:32:34.696Z,99885.13
2023-04-21T01:35:07.701Z,99882.55
2023-04-21T01:37:39.889Z,99882.81
2023-04-21T01:40:13.322Z,99881.38
2023-04-21T01:42:46.710Z,99883.11
2023-04-21T01:45:18.735Z,99882.23
2023-04-21T01:47:50.736Z,99879.20
2023-04-21T01:50:23.290Z,99881.91
2023-04-21T01:52:55.241Z,99885.06
2023-04-21T01:55:27.408Z,99882.17
2023-04-21T01:57:59.738Z,99881.77
2023-04-21T02:00:31.984Z,99882.55
2023-04-21T02:03:04.118Z,99881.06
2023-04-21T02:05:36.387Z,99884.98
2023-04-21T02:08:08.483Z,99888.30
2023-04-21T02:10:41.060Z,99889.96
2023-04-21T02:13:16.990Z,99885.33
2023-04-21T02:15:50.328Z,99883.56
2023-04-21T02:18:23.630Z,99879.77
2023-04-21T02:20:56.276Z,99881.38
2023-04-21T02:23:28.254Z,99881.87
2023-04-21T02:26:00.278Z,99884.27
2023-04-21T02:28:32.865Z,99875.02
2023-04-21T02:31:05.086Z,99875.96
2023-04-21T02:33:38.999Z,99876.79
2023-04-21T02:36:11.510Z,99878.63
2023-04-21T02:38:43.439Z,99877.21
2023-04-21T02:41:15.537Z,99885.20
2023-04-21T02:43:47.531Z,99888.27
2023-04-21T02:46:19.534Z,99890.30
2023-04-21T02:48:51.855Z,99882.73
2023-04-21T02:51:23.894Z,99885.40
2023-04-21T02:53:55.901Z,99892.41
2023-04-21T02:56:27.892Z,99899.73
2023-04-21T02:58:59.897Z,99899.64
2023-04-21T03:01:31.974Z,99901.03
2023-04-21T03:04:06.399Z,99901.35
2023-04-21T03:06:38.603Z,99900.15
2023-04-21T03:09:11.086Z,99897.23
2023-04-21T03:11:43.041Z,99899.44
2023-04-21T03:14:14.990Z,99900.86
2023-04-21T03:16:47.500Z,99889.54
2023-04-21T03:19:19.678Z,99889.98
2023-04-21T03:21:51.908Z,99882.25
2023-04-21T03:24:23.883Z,99878.22
2023-04-21T03:26:57.225Z,99880.09
2023-04-21T03:29:29.403Z,99884.60
2023-04-21T03:32:01.415Z,99892.60
2023-04-21T03:34:33.594Z,99895.38
2023-04-21T03:37:07.856Z,99897.27
2023-04-21T03:39:39.816Z,99900.23
2023-04-21T03:42:12.147Z,99898.08
2023-04-21T03:44:44.117Z,99895.38
2023-04-21T03:47:17.391Z,99904.13
2023-04-21T03:49:49.473Z,99910.70
2023-04-21T03:52:21.528Z,99910.23
2023-04-21T03:54:53.687Z,99913.38
2023-04-21T03:57:25.814Z,99915.91
2023-04-21T03:59:57.706Z,99909.00
2023-04-21T04:02:30.702Z,99908.66
2023-04-21T04:05:03.630Z,99904.55
2023-04-21T04:07:36.484Z,99907.81
2023-04-21T04:10:09.394Z,99909.56
2023-04-21T04:12:41.376Z,99907.86
2023-04-21T04:15:13.791Z,99910.59
2023-04-21T04:17:45.786Z,99912.39
2023-04-21T04:20:17.907Z,99915.70
2023-04-21T04:22:50.633Z,99923.02
2023-04-21T04:25:22.702Z,99924.83
2023-04-21T04:27:55.787Z,99928.81
2023-04-21T04:30:28.554Z,99931.08
2023-04-21T04:33:00.515Z,99933.86
2023-04-21T04:35:32.651Z,99931.42
2023-04-21T04:38:04.658Z,99931.45
2023-04-21T04:40:36.894Z,99937.22
2023-04-21T04:43:08.993Z,99935.37
2023-04-21T04:45:40.948Z,99933.10
2023-04-21T04:48:12.928Z,99931.25
2023-04-21T04:50:45.170Z,99933.20
2023-04-21T04:53:17.135Z,99934.52
2023-04-21T04:55:49.081Z,99935.44
2023-04-21T04:58:22.342Z,99932.00
2023-04-21T05:00:54.487Z,99928.67
2023-04-21T05:03:26.655Z,99926.54
2023-04-21T05:05:58.884Z,99927.20
2023-04-21T05:08:30.807Z,99931.31
2023-04-21T05:11:03.255Z,99933.33
2023-04-21T05:13:36.876Z,99931.89
2023-04-21T05:16:11.553Z,99932.77
2023-04-21T05:18:43.570Z,99933.59
2023-04-21T05:21:15.566Z,99935.12
2023-04-21T05:23:47.490Z,99935.09
2023-04-21T05:26:19.451Z,99935.88
2023-04-21T05:28:51.590Z,99935.02
2023-04-21T05:31:23.999Z,99937.91
2023-04-21T05:33:56.325Z,99935.52
2023-04-21T05:36:30.605Z,99936.92
2023-04-21T05:39:02.523Z,99938.26
2023-04-21T05:41:34.558Z,99942.96
2023-04-21T05:44:06.620Z,99942.63
2023-04-21T05:47:54.193Z,99948.92
2023-04-21T05:50:34.070Z,99950.61
2023-04-21T05:53:06.495Z,99947.81
2023-04-21T05:55:38.847Z,99946.28
2023-04-21T05:58:10.948Z,99944.26
2023-04-21T06:00:42.925Z,99943.86
2023-04-21T06:03:15.044Z,99943.77
2023-04-21T06:05:47.505Z,99940.09
2023-04-21T06:08:19.595Z,99932.66
2023-04-21T06:10:51.554Z,99932.09
2023-04-21T06:13:23.697Z,99926.71
2023-04-21T06:15:55.788Z,99927.96
2023-04-21T06:18:29.692Z,99930.91
2023-04-21T06:21:01.657Z,99933.23
2023-04-21T06:23:33.776Z,99931.59
2023-04-21T06:26:08.253Z,99931.27
2023-04-21T06:28:40.408Z,99932.67
2023-04-21T06:31:15.623Z,99931.11
2023-04-21T06:33:47.930Z,99927.52
2023-04-21T06:36:21.960Z,99922.79
2023-04-21T06:38:53.942Z,99920.70
2023-04-21T06:41:26.497Z,99916.52
2023-04-21T06:43:58.637Z,99919.59
2023-04-21T06:46:31.495Z,99918.86
2023-04-21T06:49:04.195Z,99918.55
2023-04-21T06:51:37.478Z,99924.34
2023-04-21T06:54:09.764Z,99922.58
2023-04-21T06:56:43.172Z,99921.98
2023-04-21T06:59:15.270Z,99924.15
2023-04-21T07:01:49.146Z,99924.28
2023-04-21T07:04:21.261Z,99922.59
2023-04-21T07:06:53.288Z,99924.79
2023-04-21T07:09:25.365Z,99920.70
2023-04-21T07:11:57.535Z,99917.34
2023-04-21T07:14:29.817Z,99915.36
2023-04-21T07:17:02.022Z,99917.35
2023-04-21T07:19:33.947Z,99919.23
2023-04-21T07:22:06.024Z,99923.70
2023-04-21T07:24:39.442Z,99919.33
2023-04-21T07:27:11.479Z,99918.08
2023-04-21T07:29:43.641Z,99917.84
2023-04-21T07:32:15.819Z,99918.81
2023-04-21T07:34:48.470Z,99916.52
2023-04-21T07:37:20.840Z,99915.24
2023-04-21T07:39:52.874Z,99916.73
2023-04-21T07:42:27.171Z,99915.72
2023-04-21T07:45:01.285Z,99908.46
2023-04-21T07:47:33.548Z,99910.40
2023-04-21T07:50:06.586Z,99913.05
2023-04-21T07:52:38.953Z,99909.05
2023-04-21T07:55:11.456Z,99907.67
2023-04-21T07:57:44.080Z,99906.11
2023-04-21T08:00:18.256Z,99905.45
2023-04-21T08:02:50.655Z,99903.88
2023-04-21T08:05:23.319Z,99899.20
2023-04-21T08:07:55.786Z,99905.10
2023-04-21T08:10:28.037Z,99906.32
2023-04-21T08:13:00.352Z,99904.90
2023-04-21T08:15:32.577Z,99904.52
2023-04-21T08:18:05.037Z,99898.41
2023-04-21T08:20:37.346Z,99899.27
2023-04-21T08:23:09.450Z,99893.52
2023-04-21T08:25:41.592Z,99889.52
2023-04-21T08:28:14.304Z,99890.75
2023-04-21T08:30:46.322Z,99888.42
2023-04-21T08:33:18.461Z,99883.40
2023-04-21T08:36:02.575Z,99885.30
2023-04-21T08:38:37.709Z,99884.93
2023-04-21T08:41:11.192Z,99883.85
2023-04-21T08:43:43.516Z,99883.98
2023-04-21T08:46:16.070Z,99882.24
2023-04-21T08:48:49.025Z,99879.80
2023-04-21T08:51:25.410Z,99881.31
2023-04-21T08:53:59.009Z,99878.09
2023-04-21T08:56:31.150Z,99875.10
2023-04-21T08:59:03.347Z,99869.13
2023-04-21T09:01:35.819Z,99871.34
2023-04-21T09:04:20.341Z,99864.84
2023-04-21T09:06:52.504Z,99862.36
2023-04-21T09:09:24.672Z,99860.77
2023-04-21T09:11:59.972Z,99858.71
2023-04-21T09:14:38.243Z,99858.38
2023-04-21T09:17:10.751Z,99853.68
2023-04-21T09:19:43.007Z,99851.70
2023-04-21T09:22:19.780Z,99846.48
2023-04-21T09:24:58.693Z,99843.95
2023-04-21T09:27:31.495Z,99843.08
2023-04-21T09:30:07.685Z,99842.36
2023-04-21T09:32:43.396Z,99836.67
2023-04-21T09:35:15.647Z,99841.41
2023-04-21T09:37:47.710Z,99838.98
2023-04-21T09:40:21.415Z,99840.02
2023-04-21T09:42:53.591Z,99839.39
2023-04-21T09:45:39.022Z,99836.80
2023-04-21T09:48:14.781Z,99833.25
2023-04-21T09:53:28.270Z,99831.59
2023-04-21T09:56:02.493Z,99823.17
2023-04-21T09:58:41.792Z,99825.39
2023-04-21T10:01:15.298Z,99823.15
2023-04-21T10:03:49.945Z,99821.47
2023-04-21T10:06:22.949Z,99820.84
2023-04-21T10:08:56.914Z,99815.86
2023-04-21T10:11:29.246Z,99815.17
2023-04-21T10:14:01.437Z,99808.98
2023-04-21T10:16:37.143Z,99805.73
2023-04-21T10:19:26.519Z,99804.04
2023-04-21T10:22:00.249Z,99802.13
2023-04-21T10:24:38.367Z,99802.85
2023-04-21T10:27:13.175Z,99798.27
2023-04-21T10:29:56.077Z,99796.04
2023-04-21T10:32:45.791Z,99795.93
2023-04-21T10:35:24.138Z,99795.26
2023-04-21T10:37:56.170Z,99793.54
2023-04-21T10:43:49.206Z,99783.22
2023-04-21T10:46:39.760Z,99779.93
2023-04-21T10:49:13.990Z,99777.48
2023-04-21T10:55:12.827Z,99771.14
2023-04-21T10:57:46.725Z,99768.63
2023-04-21T11:00:21.912Z,99765.21
2023-04-21T11:02:59.421Z,99765.54
2023-04-21T11:05:38.710Z,99757.94
2023-04-21T11:08:15.739Z,99754.98
2023-04-21T11:10:55.076Z,99753.60
2023-04-21T11:13:29.435Z,99753.17
2023-04-21T11:16:04.391Z,99749.48
2023-04-21T11:18:43.083Z,99746.27
2023-04-21T11:21:20.241Z,99740.05
2023-04-21T11:23:54.351Z,99737.64
2023-04-21T11:26:38.883Z,99736.20
2023-04-21T11:29:12.921Z,99730.80
2023-04-21T11:31:49.254Z,99729.70
2023-04-21T11:34:27.606Z,99730.77
2023-04-21T11:37:00.134Z,99731.42
2023-04-21T11:39:32.204Z,99729.19
2023-04-21T11:42:04.587Z,99733.14
2023-04-21T11:44:39.449Z,99727.05
2023-04-21T11:47:20.204Z,99722.39
2023-04-21T11:49:54.739Z,99721.73
2023-04-21T11:52:29.286Z,99721.29
2023-04-21T11:55:03.143Z,99716.59
2023-04-21T11:57:36.752Z,99720.73
2023-04-21T12:00:12.101Z,99719.16
2023-04-21T12:02:55.213Z,99716.26
2023-04-21T12:05:35.845Z,99713.01
2023-04-21T12:08:15.053Z,99709.76
2023-04-21T12:10:52.743Z,99713.33
2023-04-21T12:13:28.913Z,99711.61
2023-04-21T12:16:06.592Z,99707.23
2023-04-21T12:18:38.898Z,99702.34
2023-04-21T12:21:11.104Z,99693.09
2023-04-21T12:23:44.928Z,99688.00
2023-04-21T12:26:17.132Z,99686.44
2023-04-21T12:28:49.489Z,99683.30
2023-04-21T12:31:21.830Z,99683.44
2023-04-21T12:33:54.396Z,99676.93
2023-04-21T12:36:28.128Z,99677.79
2023-04-21T12:39:00.558Z,99673.94
2023-04-21T12:41:34.858Z,99670.23
2023-04-21T12:44:07.596Z,99670.31
2023-04-21T12:46:39.816Z,99663.75
2023-04-21T12:49:11.974Z,99661.93
2023-04-21T12:51:44.674Z,99665.82
2023-04-21T12:54:17.302Z,99663.25
2023-04-21T12:56:49.393Z,99663.45
2023-04-21T12:59:21.495Z,99661.61
2023-04-21T13:01:53.771Z,99661.54
2023-04-21T13:04:26.060Z,99661.83
2023-04-21T13:06:58.542Z,99659.35
2023-04-21T13:09:31.153Z,99663.08
2023-04-21T13:12:03.571Z,99657.90
2023-04-21T13:14:35.706Z,99656.46
2023-04-21T13:17:07.748Z,99652.88
2023-04-21T13:19:39.878Z,99648.52
2023-04-21T13:22:11.901Z,99642.37
2023-04-21T13:24:44.015Z,99644.34
2023-04-21T13:27:16.005Z,99637.11
2023-04-21T13:29:49.321Z,99635.73
2023-04-21T13:32:21.600Z,99632.98
2023-04-21T13:34:54.848Z,99630.94
2023-04-21T13:37:26.949Z,99626.94
2023-04-21T13:39:59.010Z,99625.94
2023-04-21T13:42:31.594Z,99621.88
2023-04-21T13:45:04.528Z,99624.64
2023-04-21T13:47:37.066Z,99620.94
2023-04-21T13:50:12.179Z,99619.20
2023-04-21T13:52:44.599Z,99616.02
2023-04-21T13:55:16.761Z,99616.34
2023-04-21T13:57:49.252Z,99617.30
2023-04-21T14:00:22.122Z,99615.00
2023-04-21T14:02:54.410Z,99616.64
2023-04-21T14:05:26.851Z,99612.18
2023-04-21T14:07:59.099Z,99611.57
2023-04-21T14:10:31.278Z,99607.86
2023-04-21T14:13:03.405Z,99608.07
2023-04-21T14:15:35.555Z,99608.58
2023-04-21T14:18:07.802Z,99598.11
2023-04-21T14:20:39.969Z,99595.53
2023-04-21T14:23:12.146Z,99590.50
2023-04-21T14:25:44.805Z,99591.46
2023-04-21T14:28:17.550Z,99587.14
2023-04-21T14:30:49.551Z,99587.30
2023-04-21T14:33:21.628Z,99589.10
2023-04-21T14:35:53.785Z,99586.64
2023-04-21T14:38:26.041Z,99592.24
2023-04-21T14:40:58.119Z,99591.46
2023-04-21T14:43:30.257Z,99589.89
2023-04-21T14:46:02.519Z,99591.29
2023-04-21T14:48:34.992Z,99591.67
2023-04-21T14:51:09.467Z,99584.44
2023-04-21T14:53:41.820Z,99583.29
2023-04-21T14:56:13.802Z,99580.27
2023-04-21T14:58:45.837Z,99576.79
2023-04-21T15:01:18.013Z,99572.98
2023-04-21T15:03:50.293Z,99573.30
2023-04-21T15:06:22.454Z,99575.86
2023-04-21T15:08:54.741Z,99569.44
2023-04-21T15:11:26.932Z,99563.20
2023-04-21T15:13:59.141Z,99561.67
2023-04-21T15:16:31.396Z,99560.11
2023-04-21T15:19:03.456Z,99559.38
2023-04-21T15:21:35.878Z,99551.73
2023-04-21T15:24:09.487Z,99548.50
2023-04-21T15:26:41.545Z,99547.30
2023-04-21T15:29:13.632Z,99548.38
2023-04-21T15:31:45.710Z,99542.92
2023-04-21T15:34:17.746Z,99542.91
2023-04-21T15:36:49.858Z,99543.67
2023-04-21T15:39:21.962Z,99543.08
2023-04-21T15:41:55.255Z,99542.34
2023-04-21T15:44:27.452Z,99540.27
2023-04-21T15:46:59.678Z,99536.27
2023-04-21T15:49:31.941Z,99537.52
2023-04-21T15:52:05.062Z,99538.67
2023-04-21T15:54:37.572Z,99539.17
2023-04-21T15:57:09.955Z,99532.34
2023-04-21T15:59:42.105Z,99537.36
2023-04-21T16:02:14.763Z,99530.54
2023-04-21T16:04:47.134Z,99530.20
2023-04-21T16:07:19.387Z,99530.14
2023-04-21T16:09:51.401Z,99529.89
2023-04-21T16:12:23.823Z,99530.54
2023-04-21T16:15:01.764Z,99526.84
2023-04-21T16:17:41.715Z,99529.89
2023-04-21T16:20:15.572Z,99533.77
2023-04-21T16:22:47.675Z,99531.34
2023-04-21T16:25:20.254Z,99531.23
2023-04-21T16:27:52.567Z,99526.34
2023-04-21T16:30:24.712Z,99526.69
2023-04-21T16:32:56.820Z,99527.79
2023-04-21T16:35:29.066Z,99525.31
2023-04-21T16:38:01.387Z,99524.33
2023-04-21T16:40:33.627Z,99523.27
2023-04-21T16:43:06.199Z,99525.59
2023-04-21T16:45:38.293Z,99524.73
2023-04-21T16:48:10.322Z,99523.68
2023-04-21T16:50:43.169Z,99526.40
2023-04-21T16:53:15.209Z,99526.56
2023-04-21T16:55:47.475Z,99520.99
2023-04-21T16:58:20.428Z,99521.36
2023-04-21T17:00:52.625Z,99522.83
2023-04-21T17:03:26.030Z,99525.05
2023-04-21T17:05:58.278Z,99526.99
2023-04-21T17:08:30.358Z,99521.64
2023-04-21T17:11:02.372Z,99528.65
2023-04-21T17:13:38.230Z,99526.75
2023-04-21T17:16:11.091Z,99524.33
2023-04-21T17:18:43.257Z,99522.27
2023-04-21T17:21:15.384Z,99520.36
2023-04-21T17:23:47.510Z,99520.02
2023-04-21T17:26:19.586Z,99520.71
2023-04-21T17:28:52.625Z,99520.69
2023-04-21T17:31:24.675Z,99520.27
2023-04-21T17:33:57.342Z,99519.52
2023-04-21T17:36:30.588Z,99517.02
2023-04-21T17:39:02.885Z,99517.99
2023-04-21T17:41:34.973Z,99519.33
2023-04-21T17:44:07.017Z,99519.45
2023-04-21T17:46:40.250Z,99523.02
2023-04-21T17:49:12.387Z,99521.38
2023-04-21T17:51:44.429Z,99523.75
2023-04-21T17:54:17.108Z,99521.58
2023-04-21T17:56:49.156Z,99523.54
2023-04-21T17:59:21.269Z,99521.36
2023-04-21T18:01:55.104Z,99521.43
2023-04-21T18:04:29.909Z,99525.66
2023-04-21T18:07:02.170Z,99527.45
2023-04-21T18:09:34.207Z,99531.11
2023-04-21T18:12:06.735Z,99533.56
2023-04-21T18:14:39.489Z,99532.73
2023-04-21T18:17:11.853Z,99538.81
2023-04-21T18:19:44.107Z,99543.66
2023-04-21T18:22:16.391Z,99547.30
2023-04-21T18:24:48.526Z,99557.86
2023-04-21T18:27:20.528Z,99554.75
2023-04-21T18:29:52.963Z,99555.77
2023-04-21T18:32:25.048Z,99557.46
2023-04-21T18:34:57.162Z,99559.85
2023-04-21T18:37:29.269Z,99562.41
2023-04-21T18:40:01.341Z,99562.90
2023-04-21T18:42:33.506Z,99561.33
2023-04-21T18:45:06.262Z,99561.41
2023-04-21T18:47:39.282Z,99560.50
2023-04-21T18:50:12.382Z,99563.23
2023-04-21T18:52:44.777Z,99557.97
2023-04-21T18:55:17.236Z,99566.73
2023-04-21T18:57:49.293Z,99562.55
2023-04-21T19:00:21.642Z,99563.89
2023-04-21T19:02:53.944Z,99563.16
2023-04-21T19:05:26.908Z,99564.48
2023-04-21T19:08:00.040Z,99562.17
2023-04-21T19:10:34.760Z,99563.67
2023-04-21T19:13:06.820Z,99562.06
2023-04-21T19:15:39.192Z,99560.96
2023-04-21T19:18:11.222Z,99560.91
2023-04-21T19:20:43.359Z,99558.96
2023-04-21T19:23:15.452Z,99558.74
2023-04-21T19:25:51.546Z,99559.39
2023-04-21T19:28:23.677Z,99561.06
2023-04-21T19:30:55.785Z,99562.38
2023-04-21T19:33:27.972Z,99558.83
2023-04-21T19:36:00.247Z,99559.77
2023-04-21T19:38:32.492Z,99564.39
2023-04-21T19:41:04.586Z,99559.84
2023-04-21T19:43:36.625Z,99562.15
2023-04-21T19:46:08.751Z,99562.09
2023-04-21T19:48:42.712Z,99562.56
2023-04-21T19:51:14.961Z,99562.17
2023-04-21T19:53:53.504Z,99563.52
2023-04-21T19:56:32.842Z,99567.81
2023-04-21T19:59:08.075Z,99565.38
2023-04-21T20:01:40.191Z,99567.42
2023-04-21T20:04:12.709Z,99566.52
2023-04-21T20:06:45.014Z,99566.11
2023-04-21T20:09:17.109Z,99565.33
2023-04-21T20:11:49.676Z,99568.02
2023-04-21T20:14:22.182Z,99571.41
2023-04-21T20:16:54.349Z,99571.54
2023-04-21T20:19:27.198Z,99574.63
2023-04-21T20:21:59.752Z,99578.39
2023-04-21T20:24:31.868Z,99579.44
2023-04-21T20:27:04.451Z,99579.86
2023-04-21T20:29:38.242Z,99584.35
2023-04-21T20:32:12.285Z,99587.11
2023-04-21T20:34:44.362Z,99587.38
2023-04-21T20:37:16.504Z,99587.84
2023-04-21T20:39:48.700Z,99604.79
2023-04-21T20:42:21.973Z,99603.27
2023-04-21T20:44:54.175Z,99607.83
2023-04-21T20:47:26.914Z,99606.16
2023-04-21T20:49:59.271Z,99607.17
2023-04-21T20:52:31.783Z,99609.02
2023-04-21T20:55:04.206Z,99607.50
2023-04-21T20:57:36.333Z,99602.28
2023-04-21T21:00:11.053Z,99598.75
2023-04-21T21:02:44.310Z,99595.54
2023-04-21T21:05:16.720Z,99599.15
2023-04-21T21:07:48.775Z,99602.10
2023-04-21T21:10:21.080Z,99600.65
2023-04-21T21:12:53.454Z,99602.98
2023-04-21T21:15:25.495Z,99601.95
2023-04-21T21:17:57.562Z,99603.87
2023-04-21T21:20:29.850Z,99603.55
2023-04-21T21:23:01.858Z,99600.98
2023-04-21T21:25:33.979Z,99594.35
2023-04-21T21:28:06.554Z,99594.95
2023-04-21T21:30:38.542Z,99595.02
2023-04-21T21:33:10.611Z,99592.48
2023-04-21T21:35:43.152Z,99595.80
2023-04-21T21:38:15.192Z,99600.70
2023-04-21T21:40:47.199Z,99600.98
2023-04-21T21:43:19.147Z,99602.67
2023-04-21T21:45:51.393Z,99603.59
2023-04-21T21:48:23.483Z,99601.02
2023-04-21T21:50:55.928Z,99602.74
2023-04-21T21:53:28.097Z,99604.24
2023-04-21T21:56:00.358Z,99605.77
2023-04-21T21:58:32.514Z,99604.19
2023-04-21T22:01:04.519Z,99610.63
2023-04-21T22:03:37.324Z,99614.31
2023-04-21T22:06:10.069Z,99615.28
2023-04-21T22:08:42.116Z,99616.38
2023-04-21T22:11:14.135Z,99615.27
2023-04-21T22:13:46.340Z,99616.35
2023-04-21T22:16:18.751Z,99613.96
2023-04-21T22:18:50.997Z,99614.58
2023-04-21T22:21:23.057Z,99613.18
2023-04-21T22:23:55.156Z,99608.67
2023-04-21T22:26:27.113Z,99608.23
2023-04-21T22:28:59.101Z,99609.70
2023-04-21T22:31:31.500Z,99608.97
2023-04-21T22:34:03.971Z,99603.27
2023-04-21T22:36:36.614Z,99605.27
2023-04-21T22:39:09.258Z,99605.32
2023-04-21T22:41:41.474Z,99602.23
2023-04-21T22:44:13.523Z,99604.45
2023-04-21T22:46:45.563Z,99601.74
2023-04-21T22:49:18.410Z,99601.29
2023-04-21T22:51:51.324Z,99600.33
2023-04-21T22:54:23.333Z,99598.84
2023-04-21T22:56:55.674Z,99599.25
2023-04-21T22:59:27.722Z,99604.73
2023-04-21T23:01:59.792Z,99612.98
2023-04-21T23:04:31.923Z,99614.40
2023-04-21T23:07:05.226Z,99608.20
2023-04-21T23:09:37.360Z,99606.19
2023-04-21T23:12:09.678Z,99606.77
2023-04-21T23:14:41.718Z,99605.27
2023-04-21T23:17:14.195Z,99612.60
2023-04-21T23:19:46.575Z,99611.41
2023-04-21T23:22:18.699Z,99612.27
2023-04-21T23:24:50.839Z,99608.23
2023-04-21T23:27:23.017Z,99607.41
2023-04-21T23:29:55.018Z,99601.29
2023-04-21T23:32:27.443Z,99603.21
2023-04-21T23:34:59.492Z,99600.52
2023-04-21T23:37:31.546Z,99604.78
2023-04-21T23:40:03.872Z,99607.59
2023-04-21T23:42:35.945Z,99605.88
2023-04-21T23:45:09.776Z,99610.39
2023-04-21T23:47:42.024Z,99601.63
2023-04-21T23:50:14.954Z,99600.88
2023-04-21T23:52:47.231Z,99599.50
2023-04-21T23:55:19.399Z,99602.37
2023-04-21T23:57:51.370Z,99601.75
